Home > Products > Valid Products > TAF

000
FTPA31 PHFO 231400 AAA
TAFHNL
TAF AMD
PHNL 231500Z 2315/2418 04005KT P6SM SCT025 SCT050
     FM231900 06014G22KT P6SM FEW025 SCT050
     FM240500 04008KT P6SM SCT025 SCT050=



000
FTPA31 PHFO 231400 AAA
TAFHNL
TAF AMD
PHNL 231500Z 2315/2418 04005KT P6SM SCT025 SCT050
     FM231900 06014G22KT P6SM FEW025 SCT050
     FM240500 04008KT P6SM SCT025 SCT050=



000
FTPA31 PHFO 231100
TAFHNL
TAF
PHNL 231138Z 2312/2418 04008KT P6SM SCT025 SCT050
     FM231900 06014G22KT P6SM FEW025 SCT050
     FM240500 04008KT P6SM SCT025 SCT050=



000
FTPA31 PHFO 231100
TAFHNL
TAF
PHNL 231138Z 2312/2418 04008KT P6SM SCT025 SCT050
     FM231900 06014G22KT P6SM FEW025 SCT050
     FM240500 04008KT P6SM SCT025 SCT050=



000
FTPA31 PHFO 230800 AAA
TAFHNL
TAF AMD
PHNL 230900Z 2309/2412 05008KT P6SM SCT025 SCT050
     FM231900 06014G22KT P6SM FEW025 SCT050
     FM240500 05008KT P6SM FEW025 SCT050=



000
FTPA31 PHFO 230800 AAA
TAFHNL
TAF AMD
PHNL 230900Z 2309/2412 05008KT P6SM SCT025 SCT050
     FM231900 06014G22KT P6SM FEW025 SCT050
     FM240500 05008KT P6SM FEW025 SCT050=



000
FTPA31 PHFO 230500
TAFHNL
TAF
PHNL 230539Z 2306/2412 05008KT P6SM VCSH SCT025 BKN050
     FM231900 06014G22KT P6SM FEW025 SCT050
     FM240500 05008KT P6SM FEW025 SCT050=



000
FTPA31 PHFO 230500
TAFHNL
TAF
PHNL 230539Z 2306/2412 05008KT P6SM VCSH SCT025 BKN050
     FM231900 06014G22KT P6SM FEW025 SCT050
     FM240500 05008KT P6SM FEW025 SCT050=



000
FTPA31 PHFO 230300 AAA
TAFHNL
TAF AMD
PHNL 230315Z 2303/2406 05012G18KT P6SM SCT030 BKN060
     FM230500 05009KT P6SM SCT025 BKN060
     FM232000 06014G20KT P6SM FEW030 SCT060
     FM240500 05007KT P6SM FEW025 SCT060=



000
FTPA31 PHFO 230300 AAA
TAFHNL
TAF AMD
PHNL 230315Z 2303/2406 05012G18KT P6SM SCT030 BKN060
     FM230500 05009KT P6SM SCT025 BKN060
     FM232000 06014G20KT P6SM FEW030 SCT060
     FM240500 05007KT P6SM FEW025 SCT060=



000
FTPA31 PHFO 222300
TAFHNL
TAF
PHNL 222332Z 2300/2406 05016G22KT P6SM SCT030 BKN060
     FM230500 05009KT P6SM SCT025 BKN060
     FM232000 06014G20KT P6SM FEW030 SCT060
     FM240500 05007KT P6SM FEW025 SCT060=



000
FTPA31 PHFO 222300
TAFHNL
TAF
PHNL 222332Z 2300/2406 05016G22KT P6SM SCT030 BKN060
     FM230500 05009KT P6SM SCT025 BKN060
     FM232000 06014G20KT P6SM FEW030 SCT060
     FM240500 05007KT P6SM FEW025 SCT060=



000
FTPA31 PHFO 222100 AAA
TAFHNL
TAF AMD
PHNL 222117Z 2221/2324 05012G18KT P6SM SCT030 BKN050
     FM230500 05009KT P6SM FEW030 SCT060
     FM232000 06012G18KT P6SM FEW035 SCT060=



000
FTPA31 PHFO 222100 AAA
TAFHNL
TAF AMD
PHNL 222117Z 2221/2324 05012G18KT P6SM SCT030 BKN050
     FM230500 05009KT P6SM FEW030 SCT060
     FM232000 06012G18KT P6SM FEW035 SCT060=



000
FTPA31 PHFO 221700
TAFHNL
TAF
PHNL 221731Z 2218/2324 05009KT P6SM SCT030 BKN060
     FM222000 05013G20KT P6SM SCT035 SCT060
     FM230500 05009KT P6SM FEW030 SCT060
     FM232000 06012G18KT P6SM FEW035 SCT060=



000
FTPA31 PHFO 221700
TAFHNL
TAF
PHNL 221731Z 2218/2324 05009KT P6SM SCT030 BKN060
     FM222000 05013G20KT P6SM SCT035 SCT060
     FM230500 05009KT P6SM FEW030 SCT060
     FM232000 06012G18KT P6SM FEW035 SCT060=



000
FTPA31 PHFO 221500 AAA
TAFHNL
TAF AMD
PHNL 221505Z 2215/2318 05010KT P6SM SCT025 BKN045
     FM222000 05013G20KT P6SM SCT025 SCT045
     FM230500 05009KT P6SM FEW025 SCT045=



000
FTPA31 PHFO 221500 AAA
TAFHNL
TAF AMD
PHNL 221505Z 2215/2318 05010KT P6SM SCT025 BKN045
     FM222000 05013G20KT P6SM SCT025 SCT045
     FM230500 05009KT P6SM FEW025 SCT045=



000
FTPA31 PHFO 221100
TAFHNL
TAF
PHNL 221139Z 2212/2318 06011KT P6SM VCSH SCT025 BKN045
     FM222000 05013G20KT P6SM SCT025 SCT045
     FM230500 05009KT P6SM FEW025 SCT045=



000
FTPA31 PHFO 221100
TAFHNL
TAF
PHNL 221139Z 2212/2318 06011KT P6SM VCSH SCT025 BKN045
     FM222000 05013G20KT P6SM SCT025 SCT045
     FM230500 05009KT P6SM FEW025 SCT045=



000
FTPA31 PHFO 220900 AAA
TAFHNL
TAF AMD
PHNL 220905Z 2209/2312 06011KT P6SM VCSH SCT025 BKN045
     FM222000 05013G20KT P6SM SCT025 SCT045
     FM230500 05009KT P6SM FEW025 SCT045=



000
FTPA31 PHFO 220900 AAA
TAFHNL
TAF AMD
PHNL 220905Z 2209/2312 06011KT P6SM VCSH SCT025 BKN045
     FM222000 05013G20KT P6SM SCT025 SCT045
     FM230500 05009KT P6SM FEW025 SCT045=



000
FTPA31 PHFO 220500
TAFHNL
TAF
PHNL 220538Z 2206/2312 06009KT P6SM VCSH SCT025 BKN045
     FM222000 05013G20KT P6SM SCT025 SCT045
     FM230500 05009KT P6SM FEW025 SCT045=



000
FTPA31 PHFO 220500
TAFHNL
TAF
PHNL 220538Z 2206/2312 06009KT P6SM VCSH SCT025 BKN045
     FM222000 05013G20KT P6SM SCT025 SCT045
     FM230500 05009KT P6SM FEW025 SCT045=



000
FTPA31 PHFO 220200 AAA
TAFHNL
TAF AMD
PHNL 220219Z 2202/2306 06013G20KT P6SM VCSH SCT025 BKN045
     FM220600 06008KT P6SM VCSH SCT025 SCT045
     FM222000 06012G20KT P6SM SCT025 SCT045=



000
FTPA31 PHFO 212300
TAFHNL
TAF
PHNL 212324Z 2200/2306 06013G20KT P6SM VCSH SCT025 SCT045
     FM220500 06008KT P6SM VCSH SCT025 SCT045
     FM222000 06012G20KT P6SM SCT025 SCT045=



000
FTPA31 PHFO 212300
TAFHNL
TAF
PHNL 212324Z 2200/2306 06013G20KT P6SM VCSH SCT025 SCT045
     FM220500 06008KT P6SM VCSH SCT025 SCT045
     FM222000 06012G20KT P6SM SCT025 SCT045=



000
FTPA31 PHFO 212000 AAA
TAFHNL
TAF AMD
PHNL 212007Z 2120/2224 06013G20KT P6SM VCSH SCT025 SCT045
     FM220500 06008KT P6SM VCSH SCT025 SCT045=



000
FTPA31 PHFO 212000 AAA
TAFHNL
TAF AMD
PHNL 212007Z 2120/2224 06013G20KT P6SM VCSH SCT025 SCT045
     FM220500 06008KT P6SM VCSH SCT025 SCT045=



000
FTPA31 PHFO 211700
TAFHNL
TAF
PHNL 211727Z 2118/2224 05006KT P6SM SCT030 BKN045
     FM212100 06013G20KT P6SM VCSH SCT025 SCT045
     FM220500 06008KT P6SM VCSH SCT025 SCT045=



000
FTPA31 PHFO 211700
TAFHNL
TAF
PHNL 211727Z 2118/2224 05006KT P6SM SCT030 BKN045
     FM212100 06013G20KT P6SM VCSH SCT025 SCT045
     FM220500 06008KT P6SM VCSH SCT025 SCT045=



000
FTPA31 PHFO 211500 AAA
TAFHNL
TAF AMD
PHNL 211502Z 2115/2218 05006KT P6SM FEW030 SCT045
     FM212100 06013G20KT P6SM VCSH SCT025 SCT045
     FM220500 06008KT P6SM VCSH SCT025 SCT045=



000
FTPA31 PHFO 211500 AAA
TAFHNL
TAF AMD
PHNL 211502Z 2115/2218 05006KT P6SM FEW030 SCT045
     FM212100 06013G20KT P6SM VCSH SCT025 SCT045
     FM220500 06008KT P6SM VCSH SCT025 SCT045=



000
FTPA31 PHFO 211100
TAFHNL
TAF
PHNL 211139Z 2112/2218 05006KT P6SM FEW025 SCT045
     FM212100 06013G20KT P6SM FEW030 SCT045
     FM220500 06008KT P6SM VCSH SCT025 SCT045=



000
FTPA31 PHFO 210900 AAA
TAFHNL
TAF AMD
PHNL 210901Z 2109/2212 06008KT P6SM SCT025 SCT045
     FM212100 06013G20KT P6SM FEW030 SCT045
     FM220500 06008KT P6SM VCSH SCT025 SCT045=



000
FTPA31 PHFO 210900 AAA
TAFHNL
TAF AMD
PHNL 210901Z 2109/2212 06008KT P6SM SCT025 SCT045
     FM212100 06013G20KT P6SM FEW030 SCT045
     FM220500 06008KT P6SM VCSH SCT025 SCT045=



000
FTPA31 PHFO 210500
TAFHNL
TAF
PHNL 210540Z 2106/2212 06008KT P6SM SCT025 SCT045
     FM212100 06013G20KT P6SM FEW030 SCT045
     FM220500 06008KT P6SM VCSH SCT025 SCT045=



000
FTPA31 PHFO 210500
TAFHNL
TAF
PHNL 210540Z 2106/2212 06008KT P6SM SCT025 SCT045
     FM212100 06013G20KT P6SM FEW030 SCT045
     FM220500 06008KT P6SM VCSH SCT025 SCT045=



000
FTPA31 PHFO 210400 AAB
TAFHNL
TAF AMD
PHNL 210401Z 2104/2206 06010G16KT P6SM FEW025 SCT040
     FM210600 05008KT P6SM FEW025 SCT040
     FM212100 06013G20KT P6SM FEW030 SCT045=



000
FTPA31 PHFO 210400 AAB
TAFHNL
TAF AMD
PHNL 210401Z 2104/2206 06010G16KT P6SM FEW025 SCT040
     FM210600 05008KT P6SM FEW025 SCT040
     FM212100 06013G20KT P6SM FEW030 SCT045=



000
FTPA31 PHFO 210200 AAA
TAFHNL
TAF AMD
PHNL 210257Z 2103/2206 05012G17KT P6SM FEW030 SCT050
     FM210600 05008KT P6SM FEW025 SCT050
     FM212100 06013G20KT P6SM FEW030 SCT050=



000
FTPA31 PHFO 210200 AAA
TAFHNL
TAF AMD
PHNL 210257Z 2103/2206 05012G17KT P6SM FEW030 SCT050
     FM210600 05008KT P6SM FEW025 SCT050
     FM212100 06013G20KT P6SM FEW030 SCT050=



000
FTPA31 PHFO 202300
TAFHNL
TAF
PHNL 202330Z 2100/2206 07012G19KT P6SM FEW030 SCT050
     FM210600 06008KT P6SM FEW025 SCT050
     FM212100 07013G20KT P6SM FEW030 SCT050=



000
FTPA31 PHFO 202100 AAA
TAFHNL
TAF AMD
PHNL 202105Z 2021/2124 06011G18KT P6SM FEW030 SCT050
     FM210600 06008KT P6SM FEW025 SCT050
     FM212100 07011G17KT P6SM FEW030 SCT050=



000
FTPA31 PHFO 201700
TAFHNL
TAF
PHNL 201734Z 2018/2124 05005KT P6SM SKC
     FM202100 07011G17KT P6SM FEW030 SCT050
     FM210600 06008KT P6SM FEW025 SCT050
     FM212100 07011G17KT P6SM FEW030 SCT050=



    US Dept of Commerce
    National Oceanic and Atmospheric Administration
    National Weather Service
    1325 East West Highway
    Silver Spring, MD 20910
    Page Author: NWS Internet Services Team
Disclaimer
Information Quality
Credits
Glossary
Privacy Policy
Freedom of Information Act (FOIA)
About Us
Career Opportunities